sensor_id;sensor_type;location;lat;lon;timestamp;temperature;humidity
65036;DHT22;51603;49.300;8.880;2022-08-25T00:01:27;20.70;81.20
65036;DHT22;51603;49.300;8.880;2022-08-25T00:03:55;20.70;82.00
65036;DHT22;51603;49.300;8.880;2022-08-25T00:06:20;20.70;82.30
65036;DHT22;51603;49.300;8.880;2022-08-25T00:08:47;20.70;83.00
65036;DHT22;51603;49.300;8.880;2022-08-25T00:11:17;20.70;83.70
65036;DHT22;51603;49.300;8.880;2022-08-25T00:13:48;20.70;84.30
65036;DHT22;51603;49.300;8.880;2022-08-25T00:16:16;20.80;84.70
65036;DHT22;51603;49.300;8.880;2022-08-25T00:18:44;20.80;85.00
65036;DHT22;51603;49.300;8.880;2022-08-25T00:21:11;20.80;85.50
65036;DHT22;51603;49.300;8.880;2022-08-25T00:23:37;20.80;85.40
65036;DHT22;51603;49.300;8.880;2022-08-25T00:26:03;20.80;85.90
65036;DHT22;51603;49.300;8.880;2022-08-25T00:28:28;20.80;86.60
65036;DHT22;51603;49.300;8.880;2022-08-25T00:30:55;20.80;86.60
65036;DHT22;51603;49.300;8.880;2022-08-25T00:33:21;20.80;86.70
65036;DHT22;51603;49.300;8.880;2022-08-25T00:35:46;20.70;87.40
65036;DHT22;51603;49.300;8.880;2022-08-25T00:38:12;20.70;87.60
65036;DHT22;51603;49.300;8.880;2022-08-25T00:40:39;20.70;88.20
65036;DHT22;51603;49.300;8.880;2022-08-25T00:43:06;20.60;88.80
65036;DHT22;51603;49.300;8.880;2022-08-25T00:45:33;20.60;89.60
65036;DHT22;51603;49.300;8.880;2022-08-25T00:47:59;20.60;90.00
65036;DHT22;51603;49.300;8.880;2022-08-25T00:50:26;20.60;90.00
65036;DHT22;51603;49.300;8.880;2022-08-25T00:52:54;20.60;90.30
65036;DHT22;51603;49.300;8.880;2022-08-25T00:55:25;20.60;90.50
65036;DHT22;51603;49.300;8.880;2022-08-25T00:57:53;20.60;90.60
65036;DHT22;51603;49.300;8.880;2022-08-25T01:03:42;20.60;91.20
65036;DHT22;51603;49.300;8.880;2022-08-25T01:06:07;20.60;91.40
65036;DHT22;51603;49.300;8.880;2022-08-25T01:08:35;20.60;91.80
65036;DHT22;51603;49.300;8.880;2022-08-25T01:11:04;20.50;91.90
65036;DHT22;51603;49.300;8.880;2022-08-25T01:13:52;20.50;92.10
65036;DHT22;51603;49.300;8.880;2022-08-25T01:16:19;20.50;92.70
65036;DHT22;51603;49.300;8.880;2022-08-25T01:18:51;20.50;92.70
65036;DHT22;51603;49.300;8.880;2022-08-25T01:21:19;20.50;92.90
65036;DHT22;51603;49.300;8.880;2022-08-25T01:23:46;20.40;93.50
65036;DHT22;51603;49.300;8.880;2022-08-25T01:28:45;20.40;93.60
65036;DHT22;51603;49.300;8.880;2022-08-25T01:31:30;20.40;93.70
65036;DHT22;51603;49.300;8.880;2022-08-25T01:33:57;20.30;94.00
65036;DHT22;51603;49.300;8.880;2022-08-25T01:36:24;20.30;94.30
65036;DHT22;51603;49.300;8.880;2022-08-25T01:38:50;20.30;94.30
65036;DHT22;51603;49.300;8.880;2022-08-25T01:41:23;20.20;94.60
65036;DHT22;51603;49.300;8.880;2022-08-25T01:43:51;20.20;94.70
65036;DHT22;51603;49.300;8.880;2022-08-25T01:46:16;20.10;94.80
65036;DHT22;51603;49.300;8.880;2022-08-25T01:48:42;20.10;95.20
65036;DHT22;51603;49.300;8.880;2022-08-25T01:51:07;20.10;95.60
65036;DHT22;51603;49.300;8.880;2022-08-25T01:53:33;20.10;95.70
65036;DHT22;51603;49.300;8.880;2022-08-25T01:56:06;20.10;95.80
65036;DHT22;51603;49.300;8.880;2022-08-25T01:58:37;20.00;96.10
65036;DHT22;51603;49.300;8.880;2022-08-25T02:01:06;20.00;96.30
65036;DHT22;51603;49.300;8.880;2022-08-25T02:03:35;20.00;96.60
65036;DHT22;51603;49.300;8.880;2022-08-25T02:06:02;20.00;97.10
65036;DHT22;51603;49.300;8.880;2022-08-25T02:08:28;20.00;97.20
65036;DHT22;51603;49.300;8.880;2022-08-25T02:10:53;20.00;97.40
65036;DHT22;51603;49.300;8.880;2022-08-25T02:13:20;20.00;97.50
65036;DHT22;51603;49.300;8.880;2022-08-25T02:15:49;20.00;97.70
65036;DHT22;51603;49.300;8.880;2022-08-25T02:18:16;20.00;97.80
65036;DHT22;51603;49.300;8.880;2022-08-25T02:20:42;20.00;98.00
65036;DHT22;51603;49.300;8.880;2022-08-25T02:23:08;20.00;98.00
65036;DHT22;51603;49.300;8.880;2022-08-25T02:25:37;20.00;98.30
65036;DHT22;51603;49.300;8.880;2022-08-25T02:28:03;20.00;98.30
65036;DHT22;51603;49.300;8.880;2022-08-25T02:30:29;20.00;98.60
65036;DHT22;51603;49.300;8.880;2022-08-25T02:32:55;20.00;98.60
65036;DHT22;51603;49.300;8.880;2022-08-25T02:35:22;19.90;98.50
65036;DHT22;51603;49.300;8.880;2022-08-25T02:37:50;19.90;99.00
65036;DHT22;51603;49.300;8.880;2022-08-25T02:40:15;19.90;99.00
65036;DHT22;51603;49.300;8.880;2022-08-25T02:42:41;19.90;99.30
65036;DHT22;51603;49.300;8.880;2022-08-25T02:45:07;19.80;99.50
65036;DHT22;51603;49.300;8.880;2022-08-25T02:47:33;19.80;99.40
65036;DHT22;51603;49.300;8.880;2022-08-25T02:50:01;19.80;99.50
65036;DHT22;51603;49.300;8.880;2022-08-25T02:52:27;19.80;99.90
65036;DHT22;51603;49.300;8.880;2022-08-25T02:54:52;19.80;99.90
65036;DHT22;51603;49.300;8.880;2022-08-25T02:57:19;19.70;99.90
65036;DHT22;51603;49.300;8.880;2022-08-25T02:59:45;19.80;99.90
65036;DHT22;51603;49.300;8.880;2022-08-25T03:02:13;19.70;99.90
65036;DHT22;51603;49.300;8.880;2022-08-25T03:04:39;19.60;99.90
65036;DHT22;51603;49.300;8.880;2022-08-25T03:07:04;19.60;99.90
65036;DHT22;51603;49.300;8.880;2022-08-25T03:09:30;19.60;99.90
65036;DHT22;51603;49.300;8.880;2022-08-25T03:11:56;19.60;99.90
65036;DHT22;51603;49.300;8.880;2022-08-25T03:14:21;19.60;99.90
65036;DHT22;51603;49.300;8.880;2022-08-25T03:16:47;19.50;99.90
65036;DHT22;51603;49.300;8.880;2022-08-25T03:19:12;19.50;99.90
65036;DHT22;51603;49.300;8.880;2022-08-25T03:21:38;19.50;99.90
65036;DHT22;51603;49.300;8.880;2022-08-25T03:24:05;19.40;99.90
65036;DHT22;51603;49.300;8.880;2022-08-25T03:26:31;19.40;99.90
65036;DHT22;51603;49.300;8.880;2022-08-25T03:29:15;19.40;99.90
65036;DHT22;51603;49.300;8.880;2022-08-25T03:31:41;19.40;99.90
65036;DHT22;51603;49.300;8.880;2022-08-25T03:34:09;19.30;99.90
65036;DHT22;51603;49.300;8.880;2022-08-25T03:36:35;19.30;99.90
65036;DHT22;51603;49.300;8.880;2022-08-25T03:39:01;19.20;99.90
65036;DHT22;51603;49.300;8.880;2022-08-25T03:41:28;19.20;99.90
65036;DHT22;51603;49.300;8.880;2022-08-25T03:43:55;19.20;99.90
65036;DHT22;51603;49.300;8.880;2022-08-25T03:46:23;19.20;99.90
65036;DHT22;51603;49.300;8.880;2022-08-25T03:48:50;19.10;99.90
65036;DHT22;51603;49.300;8.880;2022-08-25T03:51:45;19.10;99.90
65036;DHT22;51603;49.300;8.880;2022-08-25T03:54:10;19.10;99.90
65036;DHT22;51603;49.300;8.880;2022-08-25T03:56:36;19.00;99.90
65036;DHT22;51603;49.300;8.880;2022-08-25T03:59:02;19.00;99.90
65036;DHT22;51603;49.300;8.880;2022-08-25T04:01:28;19.00;99.90
65036;DHT22;51603;49.300;8.880;2022-08-25T04:03:55;19.00;99.90
65036;DHT22;51603;49.300;8.880;2022-08-25T04:06:21;19.00;99.90
65036;DHT22;51603;49.300;8.880;2022-08-25T04:08:46;19.00;99.90
65036;DHT22;51603;49.300;8.880;2022-08-25T04:11:19;18.90;99.90
65036;DHT22;51603;49.300;8.880;2022-08-25T04:13:45;18.90;99.90
65036;DHT22;51603;49.300;8.880;2022-08-25T04:16:12;18.80;99.90
65036;DHT22;51603;49.300;8.880;2022-08-25T04:18:39;18.80;99.90
65036;DHT22;51603;49.300;8.880;2022-08-25T04:21:07;18.80;99.90
65036;DHT22;51603;49.300;8.880;2022-08-25T04:23:35;18.70;99.90
65036;DHT22;51603;49.300;8.880;2022-08-25T04:26:06;18.70;99.90
65036;DHT22;51603;49.300;8.880;2022-08-25T04:28:32;18.70;99.90
65036;DHT22;51603;49.300;8.880;2022-08-25T04:30:57;18.70;99.90
65036;DHT22;51603;49.300;8.880;2022-08-25T04:33:23;18.70;99.90
65036;DHT22;51603;49.300;8.880;2022-08-25T04:35:49;18.70;99.90
65036;DHT22;51603;49.300;8.880;2022-08-25T04:38:15;18.70;99.90
65036;DHT22;51603;49.300;8.880;2022-08-25T04:40:41;18.70;99.90
65036;DHT22;51603;49.300;8.880;2022-08-25T04:43:06;18.60;99.90
65036;DHT22;51603;49.300;8.880;2022-08-25T04:45:38;18.60;99.90
65036;DHT22;51603;49.300;8.880;2022-08-25T04:48:04;18.60;99.90
65036;DHT22;51603;49.300;8.880;2022-08-25T04:50:30;18.60;99.90
65036;DHT22;51603;49.300;8.880;2022-08-25T04:52:55;18.60;99.90
65036;DHT22;51603;49.300;8.880;2022-08-25T04:55:22;18.50;99.90
65036;DHT22;51603;49.300;8.880;2022-08-25T04:57:48;18.50;99.90
65036;DHT22;51603;49.300;8.880;2022-08-25T05:00:14;18.50;99.90
65036;DHT22;51603;49.300;8.880;2022-08-25T05:02:40;18.50;99.90
65036;DHT22;51603;49.300;8.880;2022-08-25T05:05:05;18.50;99.90
65036;DHT22;51603;49.300;8.880;2022-08-25T05:07:31;18.50;99.90
65036;DHT22;51603;49.300;8.880;2022-08-25T05:09:57;18.50;99.90
65036;DHT22;51603;49.300;8.880;2022-08-25T05:12:23;18.60;99.90
65036;DHT22;51603;49.300;8.880;2022-08-25T05:14:51;18.60;99.90
65036;DHT22;51603;49.300;8.880;2022-08-25T05:17:17;18.60;99.90
65036;DHT22;51603;49.300;8.880;2022-08-25T05:19:43;18.70;99.90
65036;DHT22;51603;49.300;8.880;2022-08-25T05:22:09;18.70;99.90
65036;DHT22;51603;49.300;8.880;2022-08-25T05:24:34;18.80;99.90
65036;DHT22;51603;49.300;8.880;2022-08-25T05:27:00;18.80;99.90
65036;DHT22;51603;49.300;8.880;2022-08-25T05:29:27;18.80;99.90
65036;DHT22;51603;49.300;8.880;2022-08-25T05:31:53;18.90;99.90
65036;DHT22;51603;49.300;8.880;2022-08-25T05:34:19;18.90;99.90
65036;DHT22;51603;49.300;8.880;2022-08-25T05:36:45;18.90;99.90
65036;DHT22;51603;49.300;8.880;2022-08-25T05:39:11;18.90;99.90
65036;DHT22;51603;49.300;8.880;2022-08-25T05:41:37;18.90;99.90
65036;DHT22;51603;49.300;8.880;2022-08-25T05:44:02;18.90;99.90
65036;DHT22;51603;49.300;8.880;2022-08-25T05:46:28;19.00;99.90
65036;DHT22;51603;49.300;8.880;2022-08-25T05:48:54;19.00;99.90
65036;DHT22;51603;49.300;8.880;2022-08-25T05:51:20;19.00;99.90
65036;DHT22;51603;49.300;8.880;2022-08-25T05:53:48;19.10;99.90
65036;DHT22;51603;49.300;8.880;2022-08-25T05:56:15;19.20;99.90
65036;DHT22;51603;49.300;8.880;2022-08-25T05:58:42;19.20;99.90
65036;DHT22;51603;49.300;8.880;2022-08-25T06:01:08;19.30;99.90
65036;DHT22;51603;49.300;8.880;2022-08-25T06:03:52;19.40;99.90
65036;DHT22;51603;49.300;8.880;2022-08-25T06:06:19;19.60;99.90
65036;DHT22;51603;49.300;8.880;2022-08-25T06:08:45;19.70;99.90
65036;DHT22;51603;49.300;8.880;2022-08-25T06:11:12;19.80;99.90
65036;DHT22;51603;49.300;8.880;2022-08-25T06:13:38;20.00;99.90
65036;DHT22;51603;49.300;8.880;2022-08-25T06:16:04;20.10;99.90
65036;DHT22;51603;49.300;8.880;2022-08-25T06:18:30;20.20;99.90
65036;DHT22;51603;49.300;8.880;2022-08-25T06:20:56;20.30;99.90
65036;DHT22;51603;49.300;8.880;2022-08-25T06:23:21;20.40;99.90
65036;DHT22;51603;49.300;8.880;2022-08-25T06:25:51;20.40;99.90
65036;DHT22;51603;49.300;8.880;2022-08-25T06:28:18;20.50;99.90
65036;DHT22;51603;49.300;8.880;2022-08-25T06:30:44;20.50;99.90
65036;DHT22;51603;49.300;8.880;2022-08-25T06:33:10;20.50;99.90
65036;DHT22;51603;49.300;8.880;2022-08-25T06:35:40;20.60;99.90
65036;DHT22;51603;49.300;8.880;2022-08-25T06:38:05;20.60;99.90
65036;DHT22;51603;49.300;8.880;2022-08-25T06:40:31;20.70;99.90
65036;DHT22;51603;49.300;8.880;2022-08-25T06:42:57;20.80;99.90
65036;DHT22;51603;49.300;8.880;2022-08-25T06:45:22;20.90;99.90
65036;DHT22;51603;49.300;8.880;2022-08-25T06:47:48;21.00;99.90
65036;DHT22;51603;49.300;8.880;2022-08-25T06:50:13;21.10;99.90
65036;DHT22;51603;49.300;8.880;2022-08-25T06:52:39;21.20;99.90
65036;DHT22;51603;49.300;8.880;2022-08-25T06:55:05;21.30;99.90
65036;DHT22;51603;49.300;8.880;2022-08-25T06:57:31;21.40;99.90
65036;DHT22;51603;49.300;8.880;2022-08-25T07:00:00;21.60;99.90
65036;DHT22;51603;49.300;8.880;2022-08-25T07:02:26;21.60;99.90
65036;DHT22;51603;49.300;8.880;2022-08-25T07:04:51;21.80;99.90
65036;DHT22;51603;49.300;8.880;2022-08-25T07:07:18;22.00;99.90
65036;DHT22;51603;49.300;8.880;2022-08-25T07:09:43;22.20;99.90
65036;DHT22;51603;49.300;8.880;2022-08-25T07:12:09;22.30;99.90
65036;DHT22;51603;49.300;8.880;2022-08-25T07:14:34;22.50;99.90
65036;DHT22;51603;49.300;8.880;2022-08-25T07:17:02;22.60;99.90
65036;DHT22;51603;49.300;8.880;2022-08-25T07:19:27;22.80;99.90
65036;DHT22;51603;49.300;8.880;2022-08-25T07:21:53;22.90;99.90
65036;DHT22;51603;49.300;8.880;2022-08-25T07:24:19;22.90;99.90
65036;DHT22;51603;49.300;8.880;2022-08-25T07:26:45;22.90;99.90
65036;DHT22;51603;49.300;8.880;2022-08-25T07:29:23;23.10;99.90
65036;DHT22;51603;49.300;8.880;2022-08-25T07:31:49;23.30;99.90
65036;DHT22;51603;49.300;8.880;2022-08-25T07:34:15;23.40;99.90
65036;DHT22;51603;49.300;8.880;2022-08-25T07:37:00;23.60;99.90
65036;DHT22;51603;49.300;8.880;2022-08-25T07:39:29;23.80;99.80
65036;DHT22;51603;49.300;8.880;2022-08-25T07:41:55;23.70;99.70
65036;DHT22;51603;49.300;8.880;2022-08-25T07:44:21;23.60;99.50
65036;DHT22;51603;49.300;8.880;2022-08-25T07:46:47;23.70;99.60
65036;DHT22;51603;49.300;8.880;2022-08-25T07:49:12;23.80;99.50
65036;DHT22;51603;49.300;8.880;2022-08-25T07:51:38;24.00;99.90
65036;DHT22;51603;49.300;8.880;2022-08-25T07:54:04;24.20;98.80
65036;DHT22;51603;49.300;8.880;2022-08-25T07:56:30;24.30;98.80
65036;DHT22;51603;49.300;8.880;2022-08-25T07:58:56;24.50;97.70
65036;DHT22;51603;49.300;8.880;2022-08-25T08:01:23;24.60;97.40
65036;DHT22;51603;49.300;8.880;2022-08-25T08:03:49;24.80;97.40
65036;DHT22;51603;49.300;8.880;2022-08-25T08:06:17;25.00;97.40
65036;DHT22;51603;49.300;8.880;2022-08-25T08:08:44;25.10;96.40
65036;DHT22;51603;49.300;8.880;2022-08-25T08:11:19;25.10;95.90
65036;DHT22;51603;49.300;8.880;2022-08-25T08:13:46;25.30;96.30
65036;DHT22;51603;49.300;8.880;2022-08-25T08:16:14;25.40;95.70
65036;DHT22;51603;49.300;8.880;2022-08-25T08:18:42;25.60;94.90
65036;DHT22;51603;49.300;8.880;2022-08-25T08:21:16;25.80;94.50
65036;DHT22;51603;49.300;8.880;2022-08-25T08:23:42;26.00;94.10
65036;DHT22;51603;49.300;8.880;2022-08-25T08:26:08;26.00;93.70
65036;DHT22;51603;49.300;8.880;2022-08-25T08:28:34;26.10;93.90
65036;DHT22;51603;49.300;8.880;2022-08-25T08:31:00;26.30;93.40
65036;DHT22;51603;49.300;8.880;2022-08-25T08:33:26;26.40;92.60
65036;DHT22;51603;49.300;8.880;2022-08-25T08:36:02;26.60;92.00
65036;DHT22;51603;49.300;8.880;2022-08-25T08:38:29;26.70;91.00
65036;DHT22;51603;49.300;8.880;2022-08-25T08:47:11;26.80;90.30
65036;DHT22;51603;49.300;8.880;2022-08-25T08:52:46;26.90;89.70
65036;DHT22;51603;49.300;8.880;2022-08-25T08:55:30;26.90;90.50
65036;DHT22;51603;49.300;8.880;2022-08-25T08:57:58;27.10;88.90
65036;DHT22;51603;49.300;8.880;2022-08-25T09:00:26;27.20;87.90
65036;DHT22;51603;49.300;8.880;2022-08-25T09:03:04;27.40;88.20
65036;DHT22;51603;49.300;8.880;2022-08-25T09:05:34;27.60;86.80
65036;DHT22;51603;49.300;8.880;2022-08-25T09:08:07;27.70;86.70
65036;DHT22;51603;49.300;8.880;2022-08-25T09:13:27;28.20;82.40
65036;DHT22;51603;49.300;8.880;2022-08-25T09:16:30;28.40;81.70
65036;DHT22;51603;49.300;8.880;2022-08-25T09:30:18;29.10;75.20
65036;DHT22;51603;49.300;8.880;2022-08-25T09:32:47;29.20;75.20
65036;DHT22;51603;49.300;8.880;2022-08-25T09:35:24;29.20;73.90
65036;DHT22;51603;49.300;8.880;2022-08-25T09:38:06;29.40;73.00
65036;DHT22;51603;49.300;8.880;2022-08-25T09:40:36;29.50;72.50
65036;DHT22;51603;49.300;8.880;2022-08-25T09:43:08;29.60;70.80
65036;DHT22;51603;49.300;8.880;2022-08-25T09:45:46;29.60;69.90
65036;DHT22;51603;49.300;8.880;2022-08-25T09:48:24;29.30;68.80
65036;DHT22;51603;49.300;8.880;2022-08-25T09:50:53;29.00;70.40
65036;DHT22;51603;49.300;8.880;2022-08-25T09:53:21;29.10;70.10
65036;DHT22;51603;49.300;8.880;2022-08-25T09:55:58;29.30;67.40
65036;DHT22;51603;49.300;8.880;2022-08-25T09:58:24;29.40;68.60
65036;DHT22;51603;49.300;8.880;2022-08-25T10:01:22;29.50;67.30
65036;DHT22;51603;49.300;8.880;2022-08-25T10:04:03;29.60;66.60
65036;DHT22;51603;49.300;8.880;2022-08-25T10:06:34;29.40;65.50
65036;DHT22;51603;49.300;8.880;2022-08-25T10:09:04;29.40;66.00
65036;DHT22;51603;49.300;8.880;2022-08-25T10:11:34;29.60;67.90
65036;DHT22;51603;49.300;8.880;2022-08-25T10:14:15;29.70;64.00
65036;DHT22;51603;49.300;8.880;2022-08-25T10:16:41;29.50;64.60
65036;DHT22;51603;49.300;8.880;2022-08-25T10:19:13;29.40;64.40
65036;DHT22;51603;49.300;8.880;2022-08-25T10:22:11;29.60;64.70
65036;DHT22;51603;49.300;8.880;2022-08-25T10:24:44;29.80;64.40
65036;DHT22;51603;49.300;8.880;2022-08-25T10:35:22;30.10;60.30
65036;DHT22;51603;49.300;8.880;2022-08-25T10:38:02;30.30;59.80
65036;DHT22;51603;49.300;8.880;2022-08-25T10:40:45;30.50;60.70
65036;DHT22;51603;49.300;8.880;2022-08-25T10:46:44;30.70;57.10
65036;DHT22;51603;49.300;8.880;2022-08-25T10:49:46;30.60;58.70
65036;DHT22;51603;49.300;8.880;2022-08-25T10:55:25;30.30;57.50
65036;DHT22;51603;49.300;8.880;2022-08-25T10:58:22;30.20;58.00
65036;DHT22;51603;49.300;8.880;2022-08-25T11:01:18;29.70;58.10
65036;DHT22;51603;49.300;8.880;2022-08-25T11:04:17;29.80;59.80
65036;DHT22;51603;49.300;8.880;2022-08-25T11:06:51;29.80;58.90
65036;DHT22;51603;49.300;8.880;2022-08-25T11:09:22;29.70;58.40
65036;DHT22;51603;49.300;8.880;2022-08-25T11:14:23;29.50;58.70
65036;DHT22;51603;49.300;8.880;2022-08-25T11:16:55;29.20;59.40
65036;DHT22;51603;49.300;8.880;2022-08-25T11:19:34;29.20;60.50
65036;DHT22;51603;49.300;8.880;2022-08-25T11:22:16;29.10;60.60
65036;DHT22;51603;49.300;8.880;2022-08-25T11:30:21;29.70;59.00
65036;DHT22;51603;49.300;8.880;2022-08-25T11:32:51;30.10;59.50
65036;DHT22;51603;49.300;8.880;2022-08-25T11:35:26;30.40;57.50
65036;DHT22;51603;49.300;8.880;2022-08-25T11:40:33;30.50;56.60
65036;DHT22;51603;49.300;8.880;2022-08-25T11:46:24;30.10;56.00
65036;DHT22;51603;49.300;8.880;2022-08-25T11:51:44;30.00;56.40
65036;DHT22;51603;49.300;8.880;2022-08-25T11:54:19;30.00;56.80
65036;DHT22;51603;49.300;8.880;2022-08-25T12:05:07;30.00;56.60
65036;DHT22;51603;49.300;8.880;2022-08-25T12:13:46;30.00;54.90
65036;DHT22;51603;49.300;8.880;2022-08-25T12:19:29;30.40;53.40
65036;DHT22;51603;49.300;8.880;2022-08-25T12:27:30;31.00;51.50
65036;DHT22;51603;49.300;8.880;2022-08-25T12:36:00;31.20;51.20
65036;DHT22;51603;49.300;8.880;2022-08-25T12:38:30;31.30;49.20
65036;DHT22;51603;49.300;8.880;2022-08-25T12:44:07;31.40;49.80
65036;DHT22;51603;49.300;8.880;2022-08-25T12:46:37;31.80;49.10
65036;DHT22;51603;49.300;8.880;2022-08-25T12:49:09;31.60;47.10
65036;DHT22;51603;49.300;8.880;2022-08-25T12:51:45;31.60;47.10
65036;DHT22;51603;49.300;8.880;2022-08-25T12:57:00;31.80;48.10
65036;DHT22;51603;49.300;8.880;2022-08-25T12:59:36;31.70;46.40
65036;DHT22;51603;49.300;8.880;2022-08-25T13:10:41;32.00;48.30
65036;DHT22;51603;49.300;8.880;2022-08-25T13:16:04;32.70;47.60
65036;DHT22;51603;49.300;8.880;2022-08-25T13:18:36;33.00;45.90
65036;DHT22;51603;49.300;8.880;2022-08-25T13:21:19;32.90;45.90
65036;DHT22;51603;49.300;8.880;2022-08-25T13:23:50;32.50;46.00
65036;DHT22;51603;49.300;8.880;2022-08-25T13:26:36;32.30;45.80
65036;DHT22;51603;49.300;8.880;2022-08-25T13:31:39;32.20;45.50
65036;DHT22;51603;49.300;8.880;2022-08-25T13:34:19;32.40;45.40
65036;DHT22;51603;49.300;8.880;2022-08-25T13:36:47;32.90;45.10
65036;DHT22;51603;49.300;8.880;2022-08-25T13:39:33;33.10;44.80
65036;DHT22;51603;49.300;8.880;2022-08-25T13:42:01;33.40;44.00
65036;DHT22;51603;49.300;8.880;2022-08-25T13:44:28;33.50;42.10
65036;DHT22;51603;49.300;8.880;2022-08-25T13:49:34;33.50;42.10
65036;DHT22;51603;49.300;8.880;2022-08-25T13:52:00;33.70;42.20
65036;DHT22;51603;49.300;8.880;2022-08-25T13:54:37;33.90;42.10
65036;DHT22;51603;49.300;8.880;2022-08-25T13:57:26;34.20;40.30
65036;DHT22;51603;49.300;8.880;2022-08-25T13:59:53;34.00;41.90
65036;DHT22;51603;49.300;8.880;2022-08-25T14:05:08;33.20;41.20
65036;DHT22;51603;49.300;8.880;2022-08-25T14:07:35;33.30;42.10
65036;DHT22;51603;49.300;8.880;2022-08-25T14:10:03;33.40;42.20
65036;DHT22;51603;49.300;8.880;2022-08-25T14:12:37;33.40;42.00
65036;DHT22;51603;49.300;8.880;2022-08-25T14:17:44;32.90;41.80
65036;DHT22;51603;49.300;8.880;2022-08-25T14:20:20;33.00;43.40
65036;DHT22;51603;49.300;8.880;2022-08-25T14:22:53;32.80;41.80
65036;DHT22;51603;49.300;8.880;2022-08-25T14:25:19;32.70;42.70
65036;DHT22;51603;49.300;8.880;2022-08-25T14:27:54;32.70;42.40
65036;DHT22;51603;49.300;8.880;2022-08-25T14:30:20;33.10;43.20
65036;DHT22;51603;49.300;8.880;2022-08-25T14:32:45;33.30;41.50
65036;DHT22;51603;49.300;8.880;2022-08-25T14:35:11;33.20;41.20
65036;DHT22;51603;49.300;8.880;2022-08-25T14:37:37;32.90;41.80
65036;DHT22;51603;49.300;8.880;2022-08-25T14:40:03;33.00;43.10
65036;DHT22;51603;49.300;8.880;2022-08-25T14:42:29;33.20;42.20
65036;DHT22;51603;49.300;8.880;2022-08-25T14:44:54;33.40;41.90
65036;DHT22;51603;49.300;8.880;2022-08-25T14:47:20;33.80;41.10
65036;DHT22;51603;49.300;8.880;2022-08-25T14:49:46;34.00;40.90
65036;DHT22;51603;49.300;8.880;2022-08-25T14:52:18;34.20;40.70
65036;DHT22;51603;49.300;8.880;2022-08-25T14:54:44;34.20;39.50
65036;DHT22;51603;49.300;8.880;2022-08-25T14:57:10;34.50;40.40
65036;DHT22;51603;49.300;8.880;2022-08-25T14:59:36;34.30;39.10
65036;DHT22;51603;49.300;8.880;2022-08-25T15:02:02;34.10;39.40
65036;DHT22;51603;49.300;8.880;2022-08-25T15:04:31;34.30;40.20
65036;DHT22;51603;49.300;8.880;2022-08-25T15:06:58;34.60;39.10
65036;DHT22;51603;49.300;8.880;2022-08-25T15:09:25;34.50;38.60
65036;DHT22;51603;49.300;8.880;2022-08-25T15:11:53;34.60;38.70
65036;DHT22;51603;49.300;8.880;2022-08-25T15:14:20;34.50;39.20
65036;DHT22;51603;49.300;8.880;2022-08-25T15:16:49;34.60;39.30
65036;DHT22;51603;49.300;8.880;2022-08-25T15:19:18;34.60;38.70
65036;DHT22;51603;49.300;8.880;2022-08-25T15:21:46;34.50;38.90
65036;DHT22;51603;49.300;8.880;2022-08-25T15:24:13;34.40;38.20
65036;DHT22;51603;49.300;8.880;2022-08-25T15:26:48;34.30;39.10
65036;DHT22;51603;49.300;8.880;2022-08-25T15:29:15;34.30;38.50
65036;DHT22;51603;49.300;8.880;2022-08-25T15:31:42;34.10;38.80
65036;DHT22;51603;49.300;8.880;2022-08-25T15:34:08;34.10;38.60
65036;DHT22;51603;49.300;8.880;2022-08-25T15:36:34;33.90;38.70
65036;DHT22;51603;49.300;8.880;2022-08-25T15:39:00;33.90;38.70
65036;DHT22;51603;49.300;8.880;2022-08-25T15:41:26;33.90;38.90
65036;DHT22;51603;49.300;8.880;2022-08-25T15:43:54;33.70;38.90
65036;DHT22;51603;49.300;8.880;2022-08-25T15:46:20;33.70;39.70
65036;DHT22;51603;49.300;8.880;2022-08-25T15:48:48;33.80;39.40
65036;DHT22;51603;49.300;8.880;2022-08-25T15:51:15;34.00;38.50
65036;DHT22;51603;49.300;8.880;2022-08-25T15:53:42;34.20;39.00
65036;DHT22;51603;49.300;8.880;2022-08-25T15:56:08;34.40;38.10
65036;DHT22;51603;49.300;8.880;2022-08-25T15:58:34;34.30;38.60
65036;DHT22;51603;49.300;8.880;2022-08-25T16:01:00;34.40;38.40
65036;DHT22;51603;49.300;8.880;2022-08-25T16:03:25;34.50;38.50
65036;DHT22;51603;49.300;8.880;2022-08-25T16:05:51;34.30;37.80
65036;DHT22;51603;49.300;8.880;2022-08-25T16:08:17;33.90;38.10
65036;DHT22;51603;49.300;8.880;2022-08-25T16:10:43;34.10;38.70
65036;DHT22;51603;49.300;8.880;2022-08-25T16:13:09;34.10;38.60
65036;DHT22;51603;49.300;8.880;2022-08-25T16:15:35;34.20;38.40
65036;DHT22;51603;49.300;8.880;2022-08-25T16:18:02;34.10;38.90
65036;DHT22;51603;49.300;8.880;2022-08-25T16:20:29;34.20;38.60
65036;DHT22;51603;49.300;8.880;2022-08-25T16:22:56;34.30;38.80
65036;DHT22;51603;49.300;8.880;2022-08-25T16:25:24;34.30;38.40
65036;DHT22;51603;49.300;8.880;2022-08-25T16:27:49;34.30;38.50
65036;DHT22;51603;49.300;8.880;2022-08-25T16:30:15;34.20;38.60
65036;DHT22;51603;49.300;8.880;2022-08-25T16:32:41;34.10;38.70
65036;DHT22;51603;49.300;8.880;2022-08-25T16:35:06;33.90;39.00
65036;DHT22;51603;49.300;8.880;2022-08-25T16:37:34;33.90;38.90
65036;DHT22;51603;49.300;8.880;2022-08-25T16:40:00;33.90;39.30
65036;DHT22;51603;49.300;8.880;2022-08-25T16:42:26;33.90;39.20
65036;DHT22;51603;49.300;8.880;2022-08-25T16:44:53;33.70;39.30
65036;DHT22;51603;49.300;8.880;2022-08-25T16:47:21;33.60;39.30
65036;DHT22;51603;49.300;8.880;2022-08-25T16:49:47;33.50;39.70
65036;DHT22;51603;49.300;8.880;2022-08-25T16:52:13;33.50;39.70
65036;DHT22;51603;49.300;8.880;2022-08-25T16:54:58;33.40;39.50
65036;DHT22;51603;49.300;8.880;2022-08-25T16:57:50;33.30;39.60
65036;DHT22;51603;49.300;8.880;2022-08-25T17:00:20;33.20;39.90
65036;DHT22;51603;49.300;8.880;2022-08-25T17:02:47;33.10;40.10
65036;DHT22;51603;49.300;8.880;2022-08-25T17:05:13;33.00;39.70
65036;DHT22;51603;49.300;8.880;2022-08-25T17:07:39;32.90;40.70
65036;DHT22;51603;49.300;8.880;2022-08-25T17:10:05;32.80;40.90
65036;DHT22;51603;49.300;8.880;2022-08-25T17:12:31;32.80;41.10
65036;DHT22;51603;49.300;8.880;2022-08-25T17:14:57;32.60;41.10
65036;DHT22;51603;49.300;8.880;2022-08-25T17:17:22;32.60;41.10
65036;DHT22;51603;49.300;8.880;2022-08-25T17:19:48;32.60;41.10
65036;DHT22;51603;49.300;8.880;2022-08-25T17:22:14;32.60;40.90
65036;DHT22;51603;49.300;8.880;2022-08-25T17:24:44;32.50;40.80
65036;DHT22;51603;49.300;8.880;2022-08-25T17:27:10;32.40;40.60
65036;DHT22;51603;49.300;8.880;2022-08-25T17:29:37;32.40;41.10
65036;DHT22;51603;49.300;8.880;2022-08-25T17:32:03;32.10;41.40
65036;DHT22;51603;49.300;8.880;2022-08-25T17:34:29;32.40;41.40
65036;DHT22;51603;49.300;8.880;2022-08-25T17:36:56;31.90;42.10
65036;DHT22;51603;49.300;8.880;2022-08-25T17:39:23;31.60;43.10